DISCO EDWJ-EDWY

Flight info

Callsign DISCO
Flight time N/A
Altitude 2000
Route DCT
Aircraft DA62/L-SDFGRY/C

Departure

Time N/A
Airport Juist Airport (EDWJ)

Arrival

Time 2026-05-05 23:27
Airport Norderney Airport (EDWY)
Time Latitude Longitude Altitude Speed Heading
2026-05-05 23:27 53.68192 7.05703 10 ft 0 kts 168°
2026-05-05 23:30 53.68190 7.05704 10 ft 2 kts 172°
2026-05-05 23:31 53.68165 7.05662 10 ft 7 kts 254°
2026-05-05 23:31 53.68148 7.05553 11 ft 12 kts 256°
2026-05-05 23:31 53.68128 7.05417 13 ft 10 kts 255°
2026-05-05 23:31 53.68115 7.05322 14 ft 9 kts 255°
2026-05-05 23:32 53.68094 7.05175 12 ft 10 kts 258°
2026-05-05 23:32 53.68060 7.05159 12 ft 8 kts 85°
2026-05-05 23:32 53.68069 7.05250 13 ft 15 kts 77°
2026-05-05 23:32 53.68154 7.05834 8 ft 83 kts 76°
2026-05-05 23:33 53.68323 7.06915 200 ft 104 kts 74°
2026-05-05 23:33 53.68507 7.08191 376 ft 121 kts 76°
2026-05-05 23:33 53.68855 7.09542 496 ft 135 kts 49°
2026-05-05 23:33 53.69510 7.10787 506 ft 147 kts 48°
2026-05-05 23:34 53.70174 7.12146 510 ft 153 kts 56°
2026-05-05 23:34 53.70521 7.13824 512 ft 155 kts 89°
2026-05-05 23:34 53.70476 7.15631 562 ft 155 kts 92°
2026-05-05 23:34 53.70462 7.17451 478 ft 148 kts 88°
2026-05-05 23:35 53.70514 7.19077 336 ft 123 kts 85°
2026-05-05 23:35 53.70575 7.20396 237 ft 104 kts 86°
2026-05-05 23:35 53.70623 7.21480 112 ft 84 kts 84°
2026-05-05 23:35 53.70665 7.22392 21 ft 71 kts 85°
2026-05-05 23:36 53.70696 7.23100 6 ft 51 kts 86°
2026-05-05 23:36 53.70716 7.23587 8 ft 27 kts 86°
2026-05-05 23:36 53.70739 7.23721 12 ft 6 kts 326°
2026-05-05 23:36 53.70772 7.23601 9 ft 14 kts 287°
2026-05-05 23:37 53.70800 7.23434 7 ft 15 kts 286°
2026-05-05 23:37 53.70799 7.23267 6 ft 14 kts 263°
2026-05-05 23:37 53.70788 7.23111 6 ft 13 kts 264°
2026-05-05 23:37 53.70779 7.22967 6 ft 12 kts 263°
2026-05-05 23:38 53.70779 7.22880 7 ft 4 kts 311°
2026-05-05 23:38 53.70785 7.22811 9 ft 7 kts 259°
2026-05-05 23:38 53.70784 7.22803 9 ft 0 kts 258°